Time;durP1;ratioP1;P1;durP2;ratioP2;P2;SDS_P1;SDS_P2;PMS_P1;PMS_P2;Temp;Humidity;BMP_temperature;BMP_pressure;BME280_temperature;BME280_humidity;BME280_pressure;Samples;Min_cycle;Max_cycle;Signal;HPM_P1;HPM_P2
2022/05/15 00:00:37;;;;;;;0.40;0.10;;;;;;;23.54;63.66;101296.50;4994848;28;20032;-63
2022/05/15 00:03:02;;;;;;;0.40;0.20;;;;;;;23.51;64.21;101288.63;4994634;28;20260;-64
2022/05/15 00:05:27;;;;;;;0.20;0.20;;;;;;;23.51;63.04;101297.72;4993066;28;20038;-64
2022/05/15 00:07:56;;;;;;;0.77;0.20;;;;;;;23.50;63.95;101296.03;4993127;28;20018;-64
2022/05/15 00:10:21;;;;;;;0.15;0.10;;;;;;;23.49;63.83;101299.81;4994906;28;20030;-64
2022/05/15 00:12:47;;;;;;;0.20;0.13;;;;;;;23.49;63.23;101305.31;4993179;28;20036;-64
2022/05/15 00:15:12;;;;;;;0.40;0.17;;;;;;;23.49;63.91;101310.78;4993108;28;20027;-63
2022/05/15 00:17:37;;;;;;;0.20;0.10;;;;;;;23.50;63.62;101307.00;4992788;28;20050;-63
2022/05/15 00:20:03;;;;;;;0.25;0.10;;;;;;;23.49;63.35;101308.03;4975603;28;20523;-64
2022/05/15 00:22:32;;;;;;;0.13;0.10;;;;;;;23.49;64.13;101313.53;4992793;28;20474;-64
2022/05/15 00:24:57;;;;;;;2.15;0.28;;;;;;;23.46;63.38;101321.31;4991784;28;20062;-65
2022/05/15 00:27:22;;;;;;;0.38;0.22;;;;;;;23.45;63.30;101320.47;4992848;28;20066;-65
2022/05/15 00:29:48;;;;;;;0.38;0.20;;;;;;;23.49;63.50;101316.28;4992835;28;20030;-63
2022/05/15 00:32:13;;;;;;;0.75;0.10;;;;;;;23.48;62.52;101320.06;4975504;28;20060;-64
2022/05/15 00:34:38;;;;;;;0.10;0.10;;;;;;;23.48;63.67;101319.22;4992842;28;20026;-64
2022/05/15 00:37:04;;;;;;;0.55;0.38;;;;;;;23.45;63.43;101325.09;4975420;28;20095;-63
2022/05/15 00:39:29;;;;;;;0.20;0.20;;;;;;;23.43;63.56;101328.03;4994317;28;20029;-62
2022/05/15 00:41:54;;;;;;;0.28;0.28;;;;;;;23.47;62.65;101329.34;4997606;28;20029;-64
2022/05/15 00:44:19;;;;;;;0.00;0.00;;;;;;;23.44;63.61;101324.25;4996744;28;20162;-63
2022/05/15 00:46:45;;;;;;;0.22;0.05;;;;;;;23.43;63.71;101333.53;4981308;28;20030;-64
2022/05/15 00:49:13;;;;;;;0.25;0.22;;;;;;;23.43;63.23;101333.53;4996832;28;20516;-64
2022/05/15 00:51:41;;;;;;;0.68;0.30;;;;;;;23.43;63.48;101333.53;4996518;28;20057;-64
2022/05/15 00:54:21;;;;;;;0.88;0.30;;;;;;;23.41;63.25;101336.47;4996724;28;20068;-64
2022/05/15 00:56:53;;;;;;;0.10;0.10;;;;;;;23.43;62.96;101333.53;4996996;28;20061;-64
2022/05/15 00:59:23;;;;;;;0.45;0.28;;;;;;;23.42;63.85;101340.06;4996406;28;20023;-64
2022/05/15 01:01:48;;;;;;;0.47;0.25;;;;;;;23.43;62.89;101336.28;4978827;28;20058;-63
2022/05/15 01:04:14;;;;;;;0.50;0.10;;;;;;;23.43;63.00;101339.00;4978999;28;20061;-64
2022/05/15 01:06:43;;;;;;;0.32;0.28;;;;;;;23.41;63.32;101341.97;4996653;28;20061;-64
2022/05/15 01:09:09;;;;;;;0.35;0.20;;;;;;;23.40;63.54;101340.25;4996461;28;20105;-62
2022/05/15 01:11:37;;;;;;;0.77;0.20;;;;;;;23.42;63.67;101345.56;4996630;28;20631;-64
2022/05/15 01:14:07;;;;;;;0.20;0.20;;;;;;;23.41;63.44;101349.34;4996425;28;20034;-64
2022/05/15 01:16:33;;;;;;;0.40;0.20;;;;;;;23.41;62.93;101360.31;4996463;28;20050;-64
2022/05/15 01:19:00;;;;;;;0.20;0.20;;;;;;;23.41;62.75;101363.06;4996227;28;20536;-63
2022/05/15 01:21:30;;;;;;;0.40;0.30;;;;;;;23.41;63.51;101365.81;4997591;28;20090;-64
2022/05/15 01:23:56;;;;;;;0.77;0.20;;;;;;;23.40;62.89;101372.34;4996254;28;20033;-63
2022/05/15 01:26:23;;;;;;;0.17;0.17;;;;;;;23.39;63.67;101367.91;4995793;28;20034;-64
2022/05/15 01:28:48;;;;;;;0.10;0.10;;;;;;;23.39;62.43;101376.13;4996030;28;20041;-64
2022/05/15 01:31:15;;;;;;;0.35;0.10;;;;;;;23.39;63.37;101381.63;4996315;28;20026;-64
2022/05/15 01:33:41;;;;;;;0.30;0.30;;;;;;;23.39;62.77;101381.63;4978377;28;20104;-64
2022/05/15 01:36:07;;;;;;;0.20;0.10;;;;;;;23.37;62.25;101378.22;4996771;28;20490;-64
2022/05/15 01:38:33;;;;;;;0.73;0.30;;;;;;;23.38;63.66;101382.66;4995722;28;20458;-64
2022/05/15 01:40:59;;;;;;;0.30;0.28;;;;;;;23.37;63.59;101383.69;4995833;28;20034;-64
2022/05/15 01:43:24;;;;;;;0.25;0.20;;;;;;;23.38;63.64;101390.88;4995688;28;20520;-64
2022/05/15 01:45:49;;;;;;;0.10;0.10;;;;;;;23.36;63.10;101387.47;4995530;28;20480;-63
2022/05/15 01:48:15;;;;;;;0.63;0.38;;;;;;;23.38;62.81;101402.72;4997323;28;20029;-64
2022/05/15 01:50:41;;;;;;;0.20;0.20;;;;;;;23.35;62.68;101407.72;4999093;28;20486;-63
2022/05/15 01:53:06;;;;;;;0.15;0.10;;;;;;;23.35;62.78;101407.72;4994417;28;20065;-64
2022/05/15 01:55:32;;;;;;;0.20;0.20;;;;;;;23.34;63.57;101406.84;4995462;28;20057;-64
2022/05/15 01:57:57;;;;;;;0.40;0.30;;;;;;;23.35;62.96;101408.59;4995898;28;20030;-64
2022/05/15 02:00:24;;;;;;;0.55;0.20;;;;;;;23.36;63.84;101409.44;4995362;28;20079;-64
2022/05/15 02:02:50;;;;;;;0.85;0.20;;;;;;;23.34;62.70;101412.34;4995764;28;20030;-64
2022/05/15 02:05:17;;;;;;;0.90;0.10;;;;;;;23.35;63.43;101418.72;4995451;28;20037;-64
2022/05/15 02:07:42;;;;;;;0.20;0.20;;;;;;;23.35;64.00;101429.69;4995526;28;20048;-65
2022/05/15 02:10:09;;;;;;;0.63;0.20;;;;;;;23.35;63.18;101425.03;4995576;28;20397;-64
2022/05/15 02:12:34;;;;;;;0.32;0.30;;;;;;;23.34;63.22;101428.81;4995214;28;20019;-63
2022/05/15 02:15:02;;;;;;;0.20;0.20;;;;;;;23.33;63.75;101421.63;4995296;28;20113;-64
2022/05/15 02:17:27;;;;;;;0.32;0.20;;;;;;;23.32;63.42;101428.16;4977627;28;20250;-64
2022/05/15 02:19:53;;;;;;;0.20;0.20;;;;;;;23.33;62.92;101435.34;4994991;28;20197;-64
2022/05/15 02:22:19;;;;;;;0.10;0.10;;;;;;;23.32;62.49;101427.28;4993724;28;20029;-65
2022/05/15 02:24:44;;;;;;;0.82;0.20;;;;;;;23.32;62.76;101435.53;4996871;28;20053;-62
2022/05/15 02:27:09;;;;;;;0.15;0.10;;;;;;;23.31;63.38;101434.69;4998922;28;20050;-63
2022/05/15 02:29:35;;;;;;;0.30;0.10;;;;;;;23.33;63.20;101442.72;4995245;28;20085;-64
2022/05/15 02:32:00;;;;;;;0.35;0.20;;;;;;;23.32;62.84;101443.75;4994904;28;20030;-64
2022/05/15 02:34:25;;;;;;;0.20;0.10;;;;;;;23.31;63.63;101444.81;4995014;28;20022;-64
2022/05/15 02:36:51;;;;;;;0.10;0.10;;;;;;;23.31;63.01;101450.28;4995761;28;20033;-64
2022/05/15 02:39:16;;;;;;;0.20;0.13;;;;;;;23.31;62.79;101444.81;4994656;28;20111;-65
2022/05/15 02:41:41;;;;;;;0.50;0.20;;;;;;;23.32;63.26;101452.00;4994941;28;20050;-64
2022/05/15 02:44:07;;;;;;;0.20;0.10;;;;;;;23.29;62.44;101453.22;4994731;28;20053;-64
2022/05/15 02:46:32;;;;;;;0.43;0.20;;;;;;;23.27;63.43;101455.31;4977009;28;20030;-64
2022/05/15 02:51:41;;;;;;;0.50;0.20;;;;;;;23.29;63.05;101468.84;4994767;28;20097;-64
2022/05/15 02:54:07;;;;;;;0.15;0.15;;;;;;;23.27;63.72;101476.41;4994498;28;20454;-64
2022/05/15 02:56:33;;;;;;;0.20;0.20;;;;;;;23.27;63.14;101477.25;4994334;28;20027;-64
2022/05/15 02:58:59;;;;;;;0.17;0.17;;;;;;;23.28;63.05;101478.09;4976997;28;20030;-62
2022/05/15 03:01:25;;;;;;;0.20;0.20;;;;;;;23.29;62.35;101474.31;4994477;28;20022;-64
2022/05/15 03:03:51;;;;;;;0.20;0.10;;;;;;;23.29;62.64;101480.66;4993774;28;20430;-64
2022/05/15 03:06:17;;;;;;;0.65;0.20;;;;;;;23.29;63.11;101486.13;4993000;28;20031;-65
2022/05/15 03:08:46;;;;;;;0.35;0.30;;;;;;;23.26;62.43;101480.19;4995076;28;20093;-63
2022/05/15 03:11:12;;;;;;;0.38;0.20;;;;;;;23.28;62.58;101486.34;4997396;28;20031;-64
2022/05/15 03:13:38;;;;;;;0.30;0.15;;;;;;;23.26;63.04;101491.16;4976528;28;20394;-64
2022/05/15 03:16:05;;;;;;;0.52;0.17;;;;;;;23.26;62.24;101496.66;4994057;28;20030;-64
2022/05/15 03:18:31;;;;;;;0.10;0.10;;;;;;;23.28;62.52;101494.56;4993757;28;20100;-65
2022/05/15 03:20:56;;;;;;;0.20;0.20;;;;;;;23.23;61.61;101502.53;4994093;28;20454;-64
2022/05/15 03:23:22;;;;;;;0.43;0.20;;;;;;;23.24;63.00;101510.56;4994619;28;20073;-65
2022/05/15 03:25:47;;;;;;;0.30;0.30;;;;;;;23.28;62.07;101516.50;4993731;28;20030;-64
2022/05/15 03:28:12;;;;;;;0.20;0.20;;;;;;;23.26;62.78;101507.63;4993737;28;20042;-64
2022/05/15 03:30:39;;;;;;;0.17;0.10;;;;;;;23.25;62.87;101516.91;4993761;28;20045;-65
2022/05/15 03:33:05;;;;;;;0.28;0.10;;;;;;;23.22;62.54;101517.28;4993823;28;20485;-64
2022/05/15 03:35:31;;;;;;;0.80;0.25;;;;;;;23.23;62.41;101518.97;4994126;28;20034;-64
2022/05/15 03:37:56;;;;;;;0.28;0.17;;;;;;;23.24;62.02;101523.41;4993520;28;20034;-65
2022/05/15 03:40:22;;;;;;;0.10;0.10;;;;;;;23.22;62.96;101526.34;4993573;28;20026;-64
2022/05/15 03:42:47;;;;;;;0.20;0.10;;;;;;;23.22;62.11;101533.72;4993606;28;20466;-64
2022/05/15 03:45:13;;;;;;;0.75;0.38;;;;;;;23.22;62.22;101540.06;4993860;28;20030;-62
2022/05/15 03:47:47;;;;;;;0.45;0.10;;;;;;;23.23;62.96;101535.44;4995020;28;20049;-64
2022/05/15 03:50:12;;;;;;;;;;;;;;;23.22;62.02;101539.22;4995195;28;20030;-64
2022/05/15 03:52:38;;;;;;;0.90;0.20;;;;;;;23.19;61.64;101534.97;4993387;28;19952;-64
2022/05/15 03:55:03;;;;;;;0.20;0.20;;;;;;;23.22;61.71;101539.22;4993477;28;20034;-64
2022/05/15 03:57:28;;;;;;;0.60;0.10;;;;;;;23.21;62.92;101537.53;4993270;28;20035;-64
2022/05/15 03:59:54;;;;;;;0.43;0.10;;;;;;;23.20;62.63;101541.31;4993619;28;20030;-65
2022/05/15 04:02:19;;;;;;;0.10;0.10;;;;;;;23.27;60.26;101548.59;4993218;28;20479;-64
2022/05/15 04:04:44;;;;;;;0.25;0.10;;;;;;;23.37;60.87;101548.31;4993579;28;20501;-64
2022/05/15 04:07:09;;;;;;;0.55;0.10;;;;;;;23.42;60.75;101549.44;4993313;28;20026;-65
2022/05/15 04:09:38;;;;;;;0.47;0.20;;;;;;;23.50;60.29;101553.13;4991759;28;20033;-65
2022/05/15 04:12:03;;;;;;;0.55;0.10;;;;;;;23.53;60.65;101559.13;4993110;28;20486;-64
2022/05/15 04:14:29;;;;;;;0.13;0.08;;;;;;;23.57;60.99;101560.47;4994224;28;20041;-63
2022/05/15 04:16:55;;;;;;;0.10;0.10;;;;;;;23.59;62.00;101563.03;4992991;28;20037;-64
2022/05/15 04:19:20;;;;;;;0.57;0.10;;;;;;;23.60;61.15;101560.09;4992882;28;20124;-64
2022/05/15 04:21:45;;;;;;;0.28;0.20;;;;;;;23.60;61.46;101565.59;4991890;28;20062;-63
2022/05/15 04:24:15;;;;;;;0.30;0.10;;;;;;;23.63;61.30;101576.19;4994174;28;20516;-63
2022/05/15 04:26:42;;;;;;;0.22;0.05;;;;;;;23.64;61.22;101566.91;4995819;28;20026;-63
2022/05/15 04:29:08;;;;;;;0.10;0.03;;;;;;;23.64;60.75;101577.03;4975526;28;20022;-64
2022/05/15 04:31:34;;;;;;;0.13;0.08;;;;;;;23.66;61.45;101575.78;4975400;28;20105;-64
2022/05/15 04:34:02;;;;;;;0.22;0.00;;;;;;;23.67;61.12;101587.63;4992886;28;20050;-63
2022/05/15 04:36:27;;;;;;;0.00;0.00;;;;;;;23.67;61.80;101588.47;4992849;28;20026;-64
2022/05/15 04:38:52;;;;;;;0.30;0.10;;;;;;;23.69;60.75;101591.91;4991767;28;20026;-64
2022/05/15 04:41:19;;;;;;;0.10;0.10;;;;;;;23.69;61.30;101585.56;4992715;28;20057;-64
2022/05/15 04:43:44;;;;;;;0.38;0.17;;;;;;;23.70;61.92;101585.38;4992649;28;20030;-64
2022/05/15 04:46:09;;;;;;;0.25;0.25;;;;;;;23.71;60.82;101588.97;4992840;28;20027;-64
2022/05/15 04:48:38;;;;;;;0.10;0.10;;;;;;;23.72;61.27;101595.31;4992707;28;20018;-65
2022/05/15 04:51:04;;;;;;;1.10;0.20;;;;;;;23.74;60.88;101590.50;4992777;28;20034;-64
2022/05/15 04:53:33;;;;;;;0.30;0.10;;;;;;;23.72;61.20;101601.66;4993374;28;20034;-64
2022/05/15 04:55:59;;;;;;;0.20;0.08;;;;;;;23.75;61.37;101603.16;4992677;28;20486;-63
2022/05/15 04:58:25;;;;;;;0.28;0.17;;;;;;;23.75;61.75;101606.78;4992501;28;20033;-64
2022/05/15 05:00:50;;;;;;;0.38;0.10;;;;;;;23.74;60.78;101604.22;4992929;28;20034;-64
2022/05/15 05:03:16;;;;;;;0.85;0.20;;;;;;;23.74;60.49;101604.22;4992911;28;20030;-64
2022/05/15 05:05:42;;;;;;;0.10;0.10;;;;;;;23.76;61.27;101610.38;4993239;28;20022;-64
2022/05/15 05:08:09;;;;;;;0.10;0.10;;;;;;;23.76;60.77;101602.97;4992660;28;20500;-64
2022/05/15 05:10:35;;;;;;;0.20;0.20;;;;;;;23.79;61.27;101607.25;4992475;28;20134;-64
2022/05/15 05:13:01;;;;;;;0.30;0.30;;;;;;;23.78;61.28;101611.88;4993976;28;20026;-64
2022/05/15 05:15:26;;;;;;;0.10;0.10;;;;;;;23.79;61.73;101612.72;4993783;28;20026;-64
2022/05/15 05:17:51;;;;;;;0.35;0.30;;;;;;;23.77;61.23;101612.06;4992380;28;20026;-63
2022/05/15 05:20:16;;;;;;;0.17;0.13;;;;;;;23.79;61.59;101615.47;4992507;28;20026;-64
2022/05/15 05:22:42;;;;;;;0.05;0.00;;;;;;;23.81;61.00;101621.63;4992512;28;20377;-64
2022/05/15 05:25:08;;;;;;;0.10;0.10;;;;;;;23.80;61.80;101620.78;4992525;28;20065;-64
2022/05/15 05:27:36;;;;;;;0.10;0.10;;;;;;;23.81;62.06;101616.97;4995105;28;20043;-64
2022/05/15 05:30:01;;;;;;;0.43;0.13;;;;;;;23.82;61.03;101626.91;4996254;28;20034;-65
2022/05/15 05:32:26;;;;;;;0.15;0.10;;;;;;;23.81;61.48;101618.88;4995970;28;20024;-64
2022/05/15 05:34:52;;;;;;;0.30;0.10;;;;;;;23.84;61.46;101624.84;4996005;28;20037;-63
2022/05/15 05:37:18;;;;;;;0.40;0.00;;;;;;;23.85;61.31;101633.94;4995883;28;20072;-64
2022/05/15 05:39:44;;;;;;;0.68;0.22;;;;;;;23.84;62.38;101627.59;4995729;28;20026;-64
2022/05/15 05:42:10;;;;;;;0.25;0.05;;;;;;;23.84;61.79;101627.59;4995986;28;20054;-65
2022/05/15 05:44:36;;;;;;;0.20;0.20;;;;;;;23.82;62.40;101628.81;4996386;28;20026;-64
2022/05/15 05:47:01;;;;;;;0.10;0.10;;;;;;;23.84;62.50;101634.97;4995793;28;20026;-64
2022/05/15 05:49:26;;;;;;;0.10;0.10;;;;;;;23.85;62.11;101636.66;4995566;28;20458;-64
2022/05/15 05:51:51;;;;;;;0.40;0.03;;;;;;;23.84;62.24;101629.47;4995562;28;20018;-65
2022/05/15 05:54:17;;;;;;;0.10;0.10;;;;;;;23.85;61.44;101633.94;4996601;28;20038;-63
2022/05/15 05:56:42;;;;;;;0.08;0.08;;;;;;;23.85;62.90;101636.66;4997667;28;20022;-64
2022/05/15 05:59:07;;;;;;;0.20;0.10;;;;;;;23.86;61.88;101635.66;4995510;28;20045;-64
2022/05/15 06:01:33;;;;;;;0.10;0.00;;;;;;;23.88;61.54;101636.31;4995646;28;20415;-64
2022/05/15 06:06:43;;;;;;;0.73;0.10;;;;;;;23.87;62.12;101638.22;4995529;28;20029;-64
2022/05/15 06:09:08;;;;;;;0.20;0.10;;;;;;;23.88;62.47;101639.06;4979752;28;20512;-64
2022/05/15 06:11:33;;;;;;;0.60;0.10;;;;;;;23.87;62.24;101638.22;4995139;28;20027;-64
2022/05/15 06:13:59;;;;;;;0.35;0.20;;;;;;;23.87;62.51;101648.34;4995212;28;20060;-64
2022/05/15 06:16:25;;;;;;;0.73;0.10;;;;;;;23.90;61.89;101650.72;4977649;28;20038;-65
2022/05/15 06:18:50;;;;;;;0.40;0.10;;;;;;;23.90;62.72;101653.47;4995124;28;20027;-64
2022/05/15 06:21:15;;;;;;;0.17;0.10;;;;;;;23.86;62.77;101647.50;4995606;28;20355;-65
2022/05/15 06:23:41;;;;;;;0.40;0.20;;;;;;;23.89;62.91;101651.75;4994936;28;20022;-64
2022/05/15 06:26:06;;;;;;;0.10;0.10;;;;;;;23.88;62.60;101659.13;4995035;28;20032;-64
2022/05/15 06:28:34;;;;;;;0.10;0.00;;;;;;;23.89;62.22;101652.59;4994869;28;20397;-65
2022/05/15 06:31:00;;;;;;;0.20;0.00;;;;;;;23.87;62.58;101653.84;4994976;28;20066;-64
2022/05/15 06:33:25;;;;;;;0.25;0.20;;;;;;;23.86;63.23;101658.47;4977311;28;20073;-65
2022/05/15 06:35:50;;;;;;;0.10;0.00;;;;;;;23.88;62.39;101661.03;4995582;28;20049;-62
2022/05/15 06:38:15;;;;;;;0.22;0.10;;;;;;;23.90;62.20;101656.19;4994268;28;20065;-65
2022/05/15 06:40:41;;;;;;;0.10;0.00;;;;;;;23.88;62.22;101650.91;4994803;28;20057;-64
2022/05/15 06:43:06;;;;;;;0.10;0.10;;;;;;;23.89;62.28;101649.00;4994789;28;20068;-64
2022/05/15 06:45:31;;;;;;;0.10;0.10;;;;;;;23.92;63.32;101651.38;4994568;28;20030;-64
2022/05/15 06:47:57;;;;;;;0.03;0.03;;;;;;;23.91;62.32;101655.16;4994762;28;20030;-64
2022/05/15 06:50:22;;;;;;;0.00;0.00;;;;;;;23.92;63.05;101648.63;4977053;28;20034;-65
2022/05/15 06:52:48;;;;;;;0.30;0.30;;;;;;;23.92;63.42;101659.59;4994566;28;20037;-65
2022/05/15 06:55:18;;;;;;;0.10;0.10;;;;;;;23.93;62.33;101658.56;4994606;28;20022;-64
2022/05/15 06:57:47;;;;;;;0.10;0.10;;;;;;;23.92;63.37;101662.34;4994276;28;20029;-66
2022/05/15 07:00:16;;;;;;;0.30;0.15;;;;;;;23.94;63.99;101660.28;4995134;28;20359;-64
2022/05/15 07:02:42;;;;;;;0.10;0.10;;;;;;;23.94;62.79;101663.00;4994696;28;20019;-64
2022/05/15 07:05:12;;;;;;;2.03;0.10;;;;;;;23.94;62.42;101661.13;4994408;28;20239;-65
2022/05/15 07:07:38;;;;;;;0.35;0.20;;;;;;;23.96;63.21;101663.69;4994135;28;20402;-65
2022/05/15 07:10:04;;;;;;;0.30;0.30;;;;;;;23.92;63.47;101667.84;4994129;28;20478;-64
2022/05/15 07:12:30;;;;;;;0.10;0.10;;;;;;;23.93;63.48;101664.06;4995688;28;20085;-64
2022/05/15 07:14:55;;;;;;;0.28;0.10;;;;;;;23.95;63.66;101667.47;4996481;28;20084;-65
2022/05/15 07:17:20;;;;;;;0.40;0.05;;;;;;;23.95;63.65;101667.47;4994009;28;20105;-64
2022/05/15 07:19:45;;;;;;;0.10;0.10;;;;;;;23.96;64.07;101669.16;4994101;28;20035;-64
2022/05/15 07:22:11;;;;;;;0.10;0.10;;;;;;;23.97;63.15;101670.88;4994066;28;20466;-65
2022/05/15 07:24:40;;;;;;;1.65;0.10;;;;;;;23.96;63.67;101667.28;4993827;28;20030;-64
2022/05/15 07:27:07;;;;;;;0.28;0.10;;;;;;;23.97;63.10;101665.38;4995128;28;20092;-64
2022/05/15 07:29:36;;;;;;;0.60;0.20;;;;;;;23.96;63.35;101669.16;4993709;28;20053;-64
2022/05/15 07:32:03;;;;;;;0.10;0.10;;;;;;;23.98;63.49;101673.44;4993715;28;20108;-65
2022/05/15 07:34:28;;;;;;;0.10;0.10;;;;;;;23.96;64.03;101674.66;4993608;28;20026;-64
2022/05/15 07:36:53;;;;;;;0.20;0.20;;;;;;;23.96;63.67;101669.16;4977366;28;20034;-64
2022/05/15 07:39:20;;;;;;;0.52;0.17;;;;;;;23.94;64.08;101671.25;4993502;28;20109;-65
2022/05/15 07:41:46;;;;;;;0.40;0.10;;;;;;;23.96;63.64;101666.41;4993829;28;20026;-64
2022/05/15 07:44:12;;;;;;;1.38;0.10;;;;;;;23.96;63.91;101666.41;4993634;28;20076;-65
2022/05/15 07:46:37;;;;;;;0.60;0.10;;;;;;;23.98;63.03;101672.56;4994755;28;20038;-65
2022/05/15 07:49:03;;;;;;;0.08;0.03;;;;;;;23.98;63.80;101672.56;4976036;28;20022;-64
2022/05/15 07:51:31;;;;;;;0.95;0.10;;;;;;;23.95;64.09;101673.81;4996849;28;20041;-64
2022/05/15 07:53:56;;;;;;;0.10;0.10;;;;;;;23.96;63.50;101671.91;4975929;28;20065;-64
2022/05/15 07:56:21;;;;;;;0.10;0.10;;;;;;;23.98;64.26;101678.06;4993367;28;20053;-64
2022/05/15 07:58:47;;;;;;;0.10;0.08;;;;;;;23.98;63.23;101686.31;4993301;28;20022;-64
2022/05/15 08:01:12;;;;;;;0.10;0.00;;;;;;;23.97;63.44;101682.72;4993926;28;20034;-65
2022/05/15 08:03:43;;;;;;;1.05;0.08;;;;;;;23.98;63.54;101686.31;4993198;28;20379;-65
2022/05/15 08:08:53;;;;;;;0.20;0.13;;;;;;;23.96;63.88;101682.91;4993332;28;20030;-65
2022/05/15 08:11:19;;;;;;;0.20;0.20;;;;;;;23.98;63.04;101680.81;4993616;28;20026;-66
2022/05/15 08:13:44;;;;;;;1.55;0.22;;;;;;;23.98;63.39;101683.56;4993007;28;20022;-66
2022/05/15 08:16:10;;;;;;;0.75;0.40;;;;;;;23.99;63.89;101693.50;4993248;28;20026;-65
2022/05/15 08:24:09;;;;;;;0.52;0.13;;;;;;;24.02;63.75;101706.88;4951766;28;20101;-65
2022/05/15 08:26:34;;;;;;;0.17;0.17;;;;;;;24.00;63.82;101706.19;4951757;29;20035;-65
2022/05/15 08:28:59;;;;;;;1.08;0.35;;;;;;;24.01;63.60;101702.41;4935740;29;20129;-65
2022/05/15 08:31:26;;;;;;;0.38;0.10;;;;;;;23.99;64.07;101716.31;4951713;29;20027;-65
2022/05/15 08:33:52;;;;;;;0.70;0.10;;;;;;;24.02;64.31;101717.88;4951725;29;20134;-65
2022/05/15 08:36:17;;;;;;;0.28;0.10;;;;;;;24.01;64.33;101716.13;4957286;29;20070;-66
2022/05/15 08:38:46;;;;;;;0.00;0.00;;;;;;;24.00;64.65;101714.44;4954795;29;20039;-64
2022/05/15 08:41:29;;;;;;;0.17;0.10;;;;;;;24.01;64.13;101710.63;4951845;29;20078;-65
2022/05/15 08:44:12;;;;;;;0.00;0.00;;;;;;;24.00;64.01;101714.44;4951743;29;20114;-65
2022/05/15 08:47:14;;;;;;;0.22;0.10;;;;;;;24.01;63.75;101716.13;4951662;29;20062;-65
2022/05/15 08:49:57;;;;;;;0.20;0.15;;;;;;;24.01;63.54;101716.13;4935678;29;20391;-65
2022/05/15 08:52:45;;;;;;;0.20;0.05;;;;;;;24.01;63.99;101721.63;4952997;29;20031;-65
2022/05/15 08:55:34;;;;;;;0.17;0.08;;;;;;;24.00;63.67;101708.94;4951365;28;20043;-65
2022/05/15 08:58:04;;;;;;;0.10;0.10;;;;;;;23.99;63.89;101724.56;4951464;29;20039;-64
2022/05/15 09:00:39;;;;;;;0.40;0.20;;;;;;;24.01;63.51;101721.63;4944536;28;20034;-65
2022/05/15 09:03:18;;;;;;;0.20;0.08;;;;;;;24.01;63.60;101716.13;4996630;28;20037;-65
2022/05/15 09:05:59;;;;;;;0.13;0.13;;;;;;;24.00;63.22;101726.28;4996431;28;20034;-66
2022/05/15 09:08:42;;;;;;;0.10;0.10;;;;;;;24.01;63.98;101721.63;4998575;28;20508;-65
2022/05/15 09:11:09;;;;;;;0.25;0.10;;;;;;;24.03;63.83;101719.56;4996486;28;20038;-65
2022/05/15 09:13:41;;;;;;;0.95;0.20;;;;;;;24.01;64.07;101716.13;4978844;28;20022;-65
2022/05/15 09:16:16;;;;;;;0.25;0.10;;;;;;;24.00;63.96;101715.28;4978733;28;20117;-65
2022/05/15 09:18:42;;;;;;;0.45;0.20;;;;;;;24.03;64.18;101725.06;4999393;28;20065;-62
2022/05/15 09:21:11;;;;;;;0.25;0.22;;;;;;;24.00;63.73;101725.41;4997238;28;20034;-65
2022/05/15 09:23:43;;;;;;;0.43;0.03;;;;;;;24.00;63.77;101725.41;4996016;28;20042;-65
2022/05/15 09:26:28;;;;;;;0.65;0.00;;;;;;;24.00;63.65;101730.91;4996194;28;20030;-65
2022/05/15 09:29:01;;;;;;;0.35;0.20;;;;;;;24.01;63.98;101727.13;4996059;28;20046;-65
2022/05/15 09:31:44;;;;;;;0.10;0.10;;;;;;;24.04;63.62;101726.78;4996766;28;20061;-64
2022/05/15 09:34:25;;;;;;;0.20;0.20;;;;;;;24.02;63.65;101720.63;4996096;28;20033;-65
2022/05/15 09:36:52;;;;;;;0.15;0.15;;;;;;;24.03;63.24;101730.56;4995974;28;20482;-65
2022/05/15 09:39:27;;;;;;;0.32;0.05;;;;;;;24.02;63.24;101728.84;4995787;28;20038;-66
2022/05/15 09:45:16;;;;;;;0.25;0.20;;;;;;;24.01;63.71;101721.63;4996152;28;20433;-64
2022/05/15 09:48:00;;;;;;;0.00;0.00;;;;;;;24.01;63.64;101729.88;4977125;28;20019;-65
2022/05/15 09:50:46;;;;;;;0.10;0.10;;;;;;;24.03;63.93;101716.84;4976241;28;20094;-65
2022/05/15 09:53:22;;;;;;;0.10;0.10;;;;;;;24.02;63.05;101720.63;4958944;28;20034;-65
2022/05/15 09:56:13;;;;;;;0.20;0.10;;;;;;;23.95;63.03;101727.88;4978258;28;20034;-65
2022/05/15 09:58:54;;;;;;;0.13;0.00;;;;;;;23.91;63.33;101713.69;4977992;28;20027;-64
2022/05/15 10:01:41;;;;;;;0.00;0.00;;;;;;;23.92;62.94;101722.78;4976096;28;20045;-66
2022/05/15 10:04:19;;;;;;;0.20;0.10;;;;;;;23.89;61.71;101729.50;4975943;28;20077;-65
2022/05/15 10:07:00;;;;;;;0.10;0.10;;;;;;;23.91;62.01;101732.06;4958602;28;20474;-65
2022/05/15 10:09:31;;;;;;;1.90;0.20;;;;;;;23.90;62.14;101741.34;4958383;28;20093;-64
2022/05/15 10:12:06;;;;;;;0.20;0.20;;;;;;;23.87;61.99;101745.31;4978337;28;20030;-64
2022/05/15 10:14:40;;;;;;;0.10;0.10;;;;;;;23.89;62.25;101734.13;4975242;28;20029;-64
2022/05/15 10:17:07;;;;;;;0.10;0.00;;;;;;;23.88;62.20;101746.16;4975878;28;20482;-64
2022/05/15 10:19:49;;;;;;;0.05;0.05;;;;;;;23.88;62.19;101751.66;4975518;28;20113;-65
2022/05/15 10:22:21;;;;;;;0.00;0.00;;;;;;;23.89;62.07;101745.97;4958607;28;20374;-65
2022/05/15 10:24:47;;;;;;;0.10;0.03;;;;;;;23.87;60.94;101742.56;4959009;28;20019;-65
2022/05/15 10:27:23;;;;;;;0.40;0.10;;;;;;;23.87;62.34;101749.94;4975446;28;20039;-65
2022/05/15 10:29:55;;;;;;;0.10;0.00;;;;;;;23.87;62.09;101747.22;4975428;28;20034;-64
2022/05/15 10:32:33;;;;;;;0.20;0.10;;;;;;;23.87;61.70;101752.69;4975470;28;20026;-65
2022/05/15 10:34:59;;;;;;;0.10;0.00;;;;;;;23.87;61.19;101759.03;4975422;28;20398;-64
2022/05/15 10:37:46;;;;;;;0.10;0.05;;;;;;;23.88;61.49;101743.41;4976036;28;20044;-62
2022/05/15 10:40:41;;;;;;;0.03;0.03;;;;;;;23.86;62.11;101734.50;4976713;28;20386;-65
2022/05/15 10:43:50;;;;;;;0.28;0.20;;;;;;;23.85;61.87;101752.00;4958102;28;20022;-64
2022/05/15 10:46:19;;;;;;;0.17;0.08;;;;;;;23.84;61.75;101742.91;4975238;28;20419;-65
2022/05/15 10:49:10;;;;;;;0.52;0.00;;;;;;;23.83;61.05;101745.84;4975260;28;20029;-65
2022/05/15 10:51:44;;;;;;;0.30;0.03;;;;;;;23.85;61.45;101738.28;4975888;28;20023;-64
2022/05/15 10:57:45;;;;;;;0.08;0.03;;;;;;;23.81;62.09;101737.78;4974968;28;20072;-64
2022/05/15 11:00:31;;;;;;;0.10;0.10;;;;;;;23.84;62.12;101733.81;4957465;28;20026;-64
2022/05/15 11:03:15;;;;;;;0.40;0.20;;;;;;;23.83;61.03;101729.38;4975350;28;20029;-64
2022/05/15 11:06:06;;;;;;;0.00;0.00;;;;;;;23.83;61.93;101734.88;4974833;28;20057;-65
2022/05/15 11:08:36;;;;;;;0.43;0.10;;;;;;;23.84;62.02;101736.56;4974683;28;20027;-64
2022/05/15 11:11:30;;;;;;;0.05;0.05;;;;;;;23.81;61.31;101731.44;4974783;28;20054;-64
2022/05/15 11:14:09;;;;;;;0.32;0.20;;;;;;;23.83;61.95;101718.38;4974784;28;20035;-64
2022/05/15 11:16:57;;;;;;;0.28;0.13;;;;;;;23.82;61.18;101728.50;4975360;28;20357;-64
2022/05/15 11:19:37;;;;;;;0.30;0.20;;;;;;;23.83;61.37;101721.13;4974405;28;20033;-65
2022/05/15 11:22:18;;;;;;;0.03;0.03;;;;;;;23.82;61.47;101722.19;4975549;28;20030;-63
2022/05/15 11:24:55;;;;;;;0.25;0.20;;;;;;;23.82;62.32;101728.50;4975296;28;20109;-64
2022/05/15 11:27:28;;;;;;;0.15;0.15;;;;;;;23.82;61.12;101724.91;4974238;28;20039;-64
2022/05/15 11:29:59;;;;;;;0.50;0.10;;;;;;;23.81;61.48;101724.06;4977199;28;20467;-63
2022/05/15 11:32:32;;;;;;;0.10;0.10;;;;;;;23.81;61.42;101720.47;4974300;28;20467;-65
2022/05/15 11:35:16;;;;;;;0.10;0.10;;;;;;;23.81;61.74;101718.56;4957097;28;20121;-64
2022/05/15 11:37:43;;;;;;;0.30;0.00;;;;;;;23.80;62.29;101729.75;4974265;28;20029;-64
2022/05/15 11:40:29;;;;;;;0.32;0.20;;;;;;;23.81;61.65;101737.78;4974476;28;20558;-64
2022/05/15 11:42:55;;;;;;;0.17;0.08;;;;;;;23.80;61.54;101735.25;4974274;28;20027;-64
2022/05/15 11:45:50;;;;;;;0.28;0.20;;;;;;;23.82;61.46;101741.41;4976201;28;20042;-64
2022/05/15 11:48:24;;;;;;;0.43;0.10;;;;;;;23.82;61.14;101741.41;4973990;28;20546;-64
2022/05/15 11:50:55;;;;;;;0.20;0.10;;;;;;;23.83;61.19;101732.13;4974125;28;20027;-65
2022/05/15 11:53:27;;;;;;;0.20;0.10;;;;;;;23.80;60.78;101733.34;4973942;28;20085;-64